Time;durP1;ratioP1;P1;durP2;ratioP2;P2;SDS_P1;SDS_P2;PMS_P1;PMS_P2;Temp;Humidity;BMP_temperature;BMP_pressure;BME280_temperature;BME280_humidity;BME280_pressure;Samples;Min_cycle;Max_cycle;Signal;HPM_P1;HPM_P2
2022/07/23 00:00:51;;;;;;;9.27;6.88;;;;;;;22.44;73.88;95572.50;5062957;28;20052;-78
2022/07/23 00:03:17;;;;;;;11.02;6.82;;;;;;;22.38;74.17;95563.16;5064460;28;20037;-78
2022/07/23 00:05:42;;;;;;;9.82;7.05;;;;;;;22.35;74.08;95569.22;5058491;28;20462;-78
2022/07/23 00:08:08;;;;;;;10.02;7.07;;;;;;;22.34;74.46;95562.28;5059673;28;20047;-79
2022/07/23 00:10:34;;;;;;;9.77;7.30;;;;;;;22.30;74.47;95562.19;5063866;28;20047;-77
2022/07/23 00:12:59;;;;;;;9.02;7.05;;;;;;;22.25;76.62;95559.75;5064911;28;20040;-76
2022/07/23 00:15:25;;;;;;;9.60;6.97;;;;;;;22.18;76.44;95549.59;5068511;28;20045;-77
2022/07/23 00:17:50;;;;;;;11.05;7.13;;;;;;;22.10;77.38;95553.22;5057984;28;20051;-76
2022/07/23 00:20:16;;;;;;;12.48;7.57;;;;;;;22.03;77.75;95555.72;5069494;28;20048;-76
2022/07/23 00:22:54;;;;;;;11.38;7.18;;;;;;;22.00;78.86;95548.38;5070491;28;20833;-76
2022/07/23 00:25:20;;;;;;;10.13;6.20;;;;;;;21.89;77.84;95567.59;5054043;28;20506;-76
2022/07/23 00:27:46;;;;;;;10.77;7.25;;;;;;;21.88;77.18;95558.00;5056982;28;20442;-76
2022/07/23 00:30:12;;;;;;;9.65;7.10;;;;;;;21.92;77.10;95564.25;5064735;28;20089;-77
2022/07/23 00:32:48;;;;;;;9.77;6.68;;;;;;;21.86;75.91;95570.97;5068638;28;20714;-76
2022/07/23 00:35:13;;;;;;;10.63;6.90;;;;;;;21.87;75.17;95564.50;5066025;28;20068;-77
2022/07/23 00:37:39;;;;;;;10.00;6.40;;;;;;;21.90;74.21;95549.63;5068959;28;20435;-77
2022/07/23 00:40:05;;;;;;;8.88;6.55;;;;;;;21.88;73.61;95547.31;5070311;28;20037;-77
2022/07/23 00:42:31;;;;;;;8.82;6.25;;;;;;;21.94;73.21;95556.66;5063516;28;20033;-77
2022/07/23 00:44:57;;;;;;;9.95;6.63;;;;;;;21.99;73.33;95560.97;5058393;28;20041;-77
2022/07/23 00:47:22;;;;;;;11.52;6.78;;;;;;;22.00;72.22;95575.16;5063390;28;20045;-77
2022/07/23 00:49:48;;;;;;;8.75;6.47;;;;;;;22.02;72.44;95583.63;5063692;28;20032;-77
2022/07/23 00:52:13;;;;;;;10.80;6.65;;;;;;;22.09;72.69;95589.19;5069053;28;20457;-76
2022/07/23 00:54:39;;;;;;;9.25;5.93;;;;;;;22.02;73.52;95595.13;5065812;28;20056;-76
2022/07/23 00:57:05;;;;;;;9.38;6.50;;;;;;;22.07;74.30;95602.16;5068510;28;20510;-76
2022/07/23 00:59:30;;;;;;;9.85;7.00;;;;;;;22.03;74.95;95590.56;5063431;28;20407;-76
2022/07/23 01:01:56;;;;;;;8.63;6.47;;;;;;;22.06;75.04;95605.94;5066559;28;20040;-76
2022/07/23 01:04:21;;;;;;;10.05;6.25;;;;;;;22.03;75.03;95620.03;5063788;28;20071;-77
2022/07/23 01:06:47;;;;;;;12.40;6.82;;;;;;;22.01;75.09;95624.94;5068245;28;20052;-77
2022/07/23 01:09:12;;;;;;;10.57;6.35;;;;;;;22.05;74.66;95631.19;5069258;28;20049;-77
2022/07/23 01:11:38;;;;;;;9.35;6.63;;;;;;;22.05;74.51;95655.28;5066514;28;20044;-77
2022/07/23 01:14:17;;;;;;;9.45;6.82;;;;;;;22.10;73.71;95679.19;5067557;28;20040;-77
2022/07/23 01:16:44;;;;;;;12.07;6.20;;;;;;;22.17;73.37;95690.09;5063641;28;20044;-76
2022/07/23 01:19:10;;;;;;;9.93;6.97;;;;;;;22.25;73.12;95699.88;5067783;28;20040;-76
2022/07/23 01:21:38;;;;;;;12.23;7.15;;;;;;;22.45;72.30;95718.84;5069054;28;20040;-76
2022/07/23 01:24:04;;;;;;;10.77;7.65;;;;;;;22.57;72.30;95737.59;5065888;28;20037;-76
2022/07/23 01:26:30;;;;;;;14.98;7.75;;;;;;;22.57;68.97;95740.28;5061947;28;20032;-76
2022/07/23 01:28:56;;;;;;;15.80;7.85;;;;;;;22.46;66.50;95763.34;5062533;28;20060;-77
2022/07/23 01:31:22;;;;;;;19.63;7.70;;;;;;;22.19;64.23;95796.97;5059948;28;20076;-77
2022/07/23 01:33:47;;;;;;;14.77;6.47;;;;;;;21.68;64.45;95773.22;5068791;28;20040;-76
2022/07/23 01:36:13;;;;;;;16.80;6.45;;;;;;;21.42;65.40;95776.94;5066602;28;20068;-77
2022/07/23 01:38:39;;;;;;;19.70;6.03;;;;;;;21.31;64.86;95744.50;5065612;28;20520;-77
2022/07/23 01:41:04;;;;;;;13.43;5.18;;;;;;;21.24;63.29;95712.91;5067411;28;20068;-76
2022/07/23 01:43:30;;;;;;;10.50;4.78;;;;;;;21.07;65.04;95713.13;5069192;28;20090;-77
2022/07/23 01:45:55;;;;;;;8.77;5.97;;;;;;;20.89;67.33;95739.28;5066298;28;20041;-77
2022/07/23 01:48:21;;;;;;;10.15;5.90;;;;;;;20.64;70.04;95749.06;5069853;28;20098;-77
2022/07/23 01:50:47;;;;;;;10.18;5.90;;;;;;;20.58;71.38;95730.53;5069970;28;20036;-77
2022/07/23 01:53:13;;;;;;;10.13;6.25;;;;;;;20.57;72.07;95738.88;5068851;28;20041;-76
2022/07/23 01:55:39;;;;;;;10.55;5.47;;;;;;;20.54;72.89;95729.66;5069210;28;20048;-76
2022/07/23 01:58:05;;;;;;;9.52;6.10;;;;;;;20.49;74.54;95727.16;5062738;28;20044;-76
2022/07/23 02:00:31;;;;;;;8.38;6.05;;;;;;;20.52;75.56;95707.03;5051123;28;20041;-76
2022/07/23 02:02:58;;;;;;;11.80;6.13;;;;;;;20.34;76.82;95698.38;5051274;28;20482;-76
2022/07/23 02:05:24;;;;;;;8.27;5.88;;;;;;;20.22;78.16;95707.88;5068050;28;20044;-76
2022/07/23 02:07:50;;;;;;;10.27;6.28;;;;;;;20.28;77.60;95699.69;5059648;28;20494;-76
2022/07/23 02:10:15;;;;;;;8.55;5.80;;;;;;;20.32;77.69;95705.94;5065664;28;20048;-76
2022/07/23 02:12:41;;;;;;;10.05;6.13;;;;;;;20.31;80.80;95717.72;5061376;28;20037;-76
2022/07/23 02:15:07;;;;;;;10.23;6.40;;;;;;;20.19;83.28;95716.56;5068818;28;20051;-76
2022/07/23 02:17:33;;;;;;;8.65;5.80;;;;;;;20.03;85.45;95715.59;5067239;28;20041;-76
2022/07/23 02:19:58;;;;;;;8.88;5.78;;;;;;;19.97;85.60;95695.50;5067631;28;20041;-76
2022/07/23 02:22:23;;;;;;;10.40;5.50;;;;;;;19.92;86.47;95682.34;5069071;28;20093;-76
2022/07/23 02:24:49;;;;;;;7.10;5.05;;;;;;;19.90;86.77;95686.13;5081480;28;20051;-76
2022/07/23 02:27:14;;;;;;;7.05;4.70;;;;;;;19.97;84.92;95666.13;5059219;28;20410;-76
2022/07/23 02:29:40;;;;;;;7.97;4.25;;;;;;;19.93;83.05;95662.56;5064519;28;20048;-76
2022/07/23 02:32:05;;;;;;;6.68;4.00;;;;;;;19.88;84.90;95661.63;5062829;28;20045;-76
2022/07/23 02:34:31;;;;;;;6.70;4.05;;;;;;;19.85;86.18;95648.91;5071328;28;20047;-76
2022/07/23 02:36:56;;;;;;;6.57;4.10;;;;;;;19.80;87.84;95649.13;5058418;28;20045;-76
2022/07/23 02:39:22;;;;;;;6.30;3.50;;;;;;;19.74;89.43;95639.72;5066822;28;20041;-76
2022/07/23 02:41:47;;;;;;;6.32;3.47;;;;;;;19.77;87.45;95640.94;5061425;28;20122;-76
2022/07/23 02:44:12;;;;;;;7.53;3.72;;;;;;;19.80;86.51;95646.44;5060753;28;20041;-76
2022/07/23 02:46:38;;;;;;;4.30;3.13;;;;;;;19.76;89.50;95653.50;5066679;28;20060;-77
2022/07/23 02:49:04;;;;;;;5.15;3.20;;;;;;;19.76;91.00;95652.75;5063492;28;20033;-76
2022/07/23 02:51:30;;;;;;;5.95;3.33;;;;;;;19.58;93.36;95686.75;5066540;28;20042;-76
2022/07/23 02:53:56;;;;;;;4.47;3.20;;;;;;;19.73;90.67;95734.25;5060196;28;20043;-76
2022/07/23 02:56:22;;;;;;;6.20;3.40;;;;;;;19.58;91.40;95766.84;5058040;28;20715;-76
2022/07/23 02:58:47;;;;;;;13.50;4.80;;;;;;;19.27;100.00;95765.25;5066115;28;20089;-76
2022/07/23 03:01:13;;;;;;;12.73;5.50;;;;;;;18.82;100.00;95751.19;5060947;28;20044;-75
2022/07/23 03:03:38;;;;;;;7.43;4.38;;;;;;;18.41;100.00;95757.78;5060906;28;20040;-76
2022/07/23 03:06:04;;;;;;;7.93;4.15;;;;;;;18.33;100.00;95771.88;5066201;28;20032;-76
2022/07/23 03:08:29;;;;;;;10.20;4.28;;;;;;;18.08;100.00;95786.75;5066662;28;20047;-76
2022/07/23 03:10:55;;;;;;;7.70;5.30;;;;;;;17.91;100.00;95768.84;5052484;28;20048;-76
2022/07/23 03:13:20;;;;;;;10.35;4.85;;;;;;;17.72;100.00;95759.22;5065290;28;20041;-76
2022/07/23 03:15:46;;;;;;;8.43;5.13;;;;;;;17.86;100.00;95758.31;5068302;28;20094;-76
2022/07/23 03:18:12;;;;;;;8.88;5.30;;;;;;;17.77;100.00;95751.09;5060187;28;20037;-76
2022/07/23 03:20:37;;;;;;;8.07;5.40;;;;;;;17.77;100.00;95756.41;5060113;28;20032;-76
2022/07/23 03:23:03;;;;;;;8.35;5.20;;;;;;;17.65;100.00;95758.88;5059528;28;20770;-76
2022/07/23 03:25:28;;;;;;;14.57;6.30;;;;;;;17.57;100.00;95756.97;5066990;28;20073;-76
2022/07/23 03:27:54;;;;;;;10.75;5.32;;;;;;;17.55;100.00;95759.16;5060491;28;20383;-76
2022/07/23 03:30:19;;;;;;;7.78;5.40;;;;;;;17.47;100.00;95753.50;5057885;28;20120;-76
2022/07/23 03:32:45;;;;;;;10.10;6.38;;;;;;;17.44;100.00;95738.16;5066991;28;20510;-76
2022/07/23 03:35:10;;;;;;;9.30;5.85;;;;;;;17.43;100.00;95725.94;5063469;28;20063;-76
2022/07/23 03:37:36;;;;;;;9.25;6.25;;;;;;;17.49;100.00;95718.59;5067766;28;20041;-76
2022/07/23 03:40:02;;;;;;;9.18;6.28;;;;;;;17.41;100.00;95701.53;5063541;28;20047;-76
2022/07/23 03:42:27;;;;;;;9.27;5.95;;;;;;;17.33;100.00;95678.34;5057738;28;20041;-75
2022/07/23 03:44:53;;;;;;;11.45;6.28;;;;;;;17.28;100.00;95649.22;5062248;28;20047;-75
2022/07/23 03:47:21;;;;;;;8.40;5.97;;;;;;;17.24;100.00;95605.72;5068249;28;20697;-76
2022/07/23 03:49:47;;;;;;;10.60;5.90;;;;;;;17.23;100.00;95580.22;5068921;28;20170;-76
2022/07/23 03:52:13;;;;;;;10.05;6.25;;;;;;;17.23;100.00;95582.88;5072772;28;20634;-76
2022/07/23 03:54:38;;;;;;;10.05;6.30;;;;;;;17.27;100.00;95594.47;5069696;28;20040;-76
2022/07/23 03:57:04;;;;;;;9.73;6.47;;;;;;;17.39;100.00;95623.91;5065118;28;20413;-76
2022/07/23 03:59:29;;;;;;;10.63;6.72;;;;;;;17.31;100.00;95638.75;5067509;28;20041;-76
2022/07/23 04:01:55;;;;;;;9.60;6.25;;;;;;;17.37;100.00;95658.00;5061417;28;20043;-76
2022/07/23 04:04:20;;;;;;;9.60;6.45;;;;;;;17.35;100.00;95654.88;5061921;28;20417;-76
2022/07/23 04:06:46;;;;;;;15.57;7.45;;;;;;;17.36;100.00;95650.34;5067833;28;20037;-76
2022/07/23 04:09:12;;;;;;;14.80;7.30;;;;;;;17.30;100.00;95644.38;5061888;28;20036;-76
2022/07/23 04:11:37;;;;;;;10.93;6.75;;;;;;;17.37;100.00;95641.25;5063039;28;20036;-76
2022/07/23 04:14:03;;;;;;;11.45;7.70;;;;;;;17.45;100.00;95643.94;5072045;28;20040;-76
2022/07/23 04:16:28;;;;;;;11.65;7.85;;;;;;;17.42;100.00;95639.22;5071127;28;20040;-76
2022/07/23 04:18:54;;;;;;;10.70;7.07;;;;;;;17.35;100.00;95641.56;5069119;28;20566;-76
2022/07/23 04:21:19;;;;;;;11.05;7.20;;;;;;;17.47;100.00;95636.44;5065194;28;20051;-76
2022/07/23 04:23:45;;;;;;;11.80;8.07;;;;;;;17.46;100.00;95640.19;5068427;28;20631;-76
2022/07/23 04:26:11;;;;;;;13.55;7.63;;;;;;;17.43;100.00;95630.16;5064528;28;20040;-76
2022/07/23 04:28:36;;;;;;;11.20;7.18;;;;;;;17.44;100.00;95615.78;5060456;28;20535;-76
2022/07/23 04:31:02;;;;;;;10.70;7.50;;;;;;;17.44;100.00;95605.13;5068865;28;20043;-76
2022/07/23 04:33:27;;;;;;;10.63;7.63;;;;;;;17.45;100.00;95606.69;5071783;28;20098;-77
2022/07/23 04:35:53;;;;;;;10.65;7.55;;;;;;;17.43;100.00;95603.56;5068320;28;20044;-76
2022/07/23 04:38:18;;;;;;;12.07;8.05;;;;;;;17.42;100.00;95617.94;5063264;28;20036;-76
2022/07/23 04:40:44;;;;;;;12.02;7.85;;;;;;;17.53;100.00;95622.97;5065932;28;20033;-76
2022/07/23 04:43:09;;;;;;;9.27;6.85;;;;;;;17.63;100.00;95628.03;5061552;28;20041;-76
2022/07/23 04:45:34;;;;;;;11.52;7.60;;;;;;;17.64;100.00;95632.22;5076993;28;20040;-76
2022/07/23 04:48:01;;;;;;;11.60;7.43;;;;;;;17.60;100.00;95624.09;5065334;28;20071;-76
2022/07/23 04:50:26;;;;;;;13.05;7.65;;;;;;;17.66;100.00;95624.72;5076171;28;20041;-76
2022/07/23 04:52:52;;;;;;;14.10;7.82;;;;;;;17.71;100.00;95627.22;5062753;28;20043;-76
2022/07/23 04:55:17;;;;;;;12.85;7.85;;;;;;;17.73;100.00;95619.72;5062408;28;20052;-76
2022/07/23 04:57:43;;;;;;;10.80;7.28;;;;;;;17.67;100.00;95613.00;5063376;28;20044;-76
2022/07/23 05:00:10;;;;;;;11.98;7.63;;;;;;;17.70;100.00;95606.25;5070227;28;20052;-76
2022/07/23 05:02:36;;;;;;;13.35;7.13;;;;;;;17.78;100.00;95616.91;5066465;28;20679;-76
2022/07/23 05:05:01;;;;;;;12.80;7.40;;;;;;;17.82;100.00;95603.75;5066118;28;20105;-76
2022/07/23 05:07:27;;;;;;;14.32;8.77;;;;;;;17.81;100.00;95608.31;5062874;28;20052;-76
2022/07/23 05:09:52;;;;;;;11.13;7.40;;;;;;;17.83;100.00;95600.78;5059209;28;20064;-76
2022/07/23 05:12:18;;;;;;;11.30;7.65;;;;;;;17.87;100.00;95600.16;5053191;28;20114;-76
2022/07/23 05:14:43;;;;;;;11.05;7.78;;;;;;;17.88;100.00;95607.06;5069099;28;20036;-76
2022/07/23 05:17:08;;;;;;;13.68;8.23;;;;;;;17.78;100.00;95608.13;5069267;28;20052;-76
2022/07/23 05:19:35;;;;;;;12.60;7.32;;;;;;;17.92;100.00;95602.69;5064617;28;20040;-76
2022/07/23 05:22:01;;;;;;;10.40;7.30;;;;;;;17.95;100.00;95607.38;5057027;28;20499;-76
2022/07/23 05:24:26;;;;;;;12.02;7.65;;;;;;;18.00;100.00;95609.88;5061365;28;20165;-76
2022/07/23 05:26:52;;;;;;;10.40;7.68;;;;;;;18.02;100.00;95617.56;5068094;28;20595;-76
2022/07/23 05:29:17;;;;;;;10.15;7.38;;;;;;;17.97;100.00;95615.84;5058982;28;20052;-76
2022/07/23 05:31:43;;;;;;;10.70;7.35;;;;;;;17.98;100.00;95617.41;5059853;28;20041;-76
2022/07/23 05:34:08;;;;;;;11.30;8.00;;;;;;;17.94;100.00;95616.47;5061724;28;20523;-76
2022/07/23 05:36:34;;;;;;;11.27;7.65;;;;;;;18.05;100.00;95617.72;5063953;28;20045;-76
2022/07/23 05:38:59;;;;;;;10.20;6.60;;;;;;;18.03;100.00;95619.13;5065855;28;20120;-76
2022/07/23 05:41:25;;;;;;;14.40;8.38;;;;;;;18.04;100.00;95620.69;5063063;28;20446;-77
2022/07/23 05:43:50;;;;;;;12.95;7.78;;;;;;;18.01;100.00;95622.09;5068507;28;20496;-77
2022/07/23 05:46:16;;;;;;;14.27;8.20;;;;;;;18.07;100.00;95625.38;5069985;28;20494;-77
2022/07/23 05:48:42;;;;;;;11.90;7.63;;;;;;;18.16;100.00;95629.63;5066754;28;20541;-77
2022/07/23 05:51:08;;;;;;;14.55;8.27;;;;;;;18.24;100.00;95641.34;5063300;28;20045;-77
2022/07/23 05:53:34;;;;;;;14.00;8.60;;;;;;;18.12;100.00;95644.66;5066654;28;20460;-77
2022/07/23 05:56:00;;;;;;;12.05;7.97;;;;;;;18.16;100.00;95650.94;5064960;28;20052;-77
2022/07/23 05:58:26;;;;;;;14.30;8.52;;;;;;;18.31;100.00;95651.53;5057777;28;20407;-77
2022/07/23 06:00:51;;;;;;;11.55;7.88;;;;;;;18.47;100.00;95657.94;5070197;28;20413;-77
2022/07/23 06:03:17;;;;;;;11.80;7.70;;;;;;;18.41;100.00;95667.19;5070084;28;20505;-77
2022/07/23 06:05:43;;;;;;;13.57;8.45;;;;;;;18.47;100.00;95671.25;5066565;28;20036;-76
2022/07/23 06:08:08;;;;;;;12.32;7.88;;;;;;;18.42;100.00;95674.09;5065504;28;20246;-76
2022/07/23 06:10:34;;;;;;;11.98;8.20;;;;;;;18.48;100.00;95680.81;5058817;28;20960;-76
2022/07/23 06:12:59;;;;;;;16.95;8.63;;;;;;;18.47;100.00;95676.59;5058957;28;20087;-76
2022/07/23 06:15:25;;;;;;;14.90;8.75;;;;;;;18.40;100.00;95665.63;5067548;28;20048;-76
2022/07/23 06:17:50;;;;;;;13.00;8.75;;;;;;;18.37;100.00;95652.16;5069810;28;20033;-76
2022/07/23 06:20:16;;;;;;;12.15;8.93;;;;;;;18.40;100.00;95652.28;5066429;28;20048;-77
2022/07/23 06:22:41;;;;;;;15.48;10.07;;;;;;;18.28;100.00;95636.19;5062881;28;20090;-77
2022/07/23 06:25:07;;;;;;;12.25;9.27;;;;;;;18.34;100.00;95618.94;5064373;28;20132;-76
2022/07/23 06:27:33;;;;;;;13.60;9.32;;;;;;;18.24;100.00;95609.38;5066409;28;20041;-76
2022/07/23 06:29:59;;;;;;;11.80;8.77;;;;;;;18.21;100.00;95603.94;5062764;28;20595;-77
2022/07/23 06:32:24;;;;;;;14.00;8.82;;;;;;;18.41;100.00;95623.78;5064816;28;20426;-76
2022/07/23 06:34:50;;;;;;;11.77;8.80;;;;;;;18.37;100.00;95644.94;5058753;28;20041;-77
2022/07/23 06:37:16;;;;;;;16.25;10.15;;;;;;;18.35;100.00;95642.59;5063181;28;20040;-76
2022/07/23 06:39:42;;;;;;;16.88;9.35;;;;;;;18.30;100.00;95645.44;5063917;28;20063;-76
2022/07/23 06:42:07;;;;;;;13.20;9.88;;;;;;;18.40;100.00;95646.19;5065485;28;20540;-76
2022/07/23 06:44:32;;;;;;;14.70;8.95;;;;;;;18.35;100.00;95668.47;5065784;28;20041;-76
2022/07/23 06:46:58;;;;;;;15.07;9.60;;;;;;;18.27;100.00;95662.03;5069560;28;20058;-76
2022/07/23 06:49:23;;;;;;;15.55;8.88;;;;;;;18.30;100.00;95671.28;5071653;28;20037;-79
2022/07/23 06:51:49;;;;;;;13.32;9.13;;;;;;;18.36;100.00;95662.03;5068258;28;20083;-76
2022/07/23 06:54:14;;;;;;;13.05;8.45;;;;;;;18.42;100.00;95674.09;5068072;28;20059;-79
2022/07/23 06:56:40;;;;;;;12.48;8.48;;;;;;;18.51;100.00;95680.19;5063621;28;20118;-77
2022/07/23 06:59:06;;;;;;;16.05;8.43;;;;;;;18.59;100.00;95685.81;5067674;28;20444;-77
2022/07/23 07:01:31;;;;;;;14.45;8.10;;;;;;;18.64;100.00;95686.44;5067579;28;20040;-78
2022/07/23 07:03:57;;;;;;;11.95;8.18;;;;;;;18.75;100.00;95692.22;5068440;28;20051;-77
2022/07/23 07:06:22;;;;;;;10.85;7.97;;;;;;;18.87;100.00;95684.38;5065761;28;20072;-78
2022/07/23 07:08:48;;;;;;;12.13;8.40;;;;;;;18.86;100.00;95680.16;5065323;28;20041;-77
2022/07/23 07:11:13;;;;;;;11.07;8.07;;;;;;;18.99;100.00;95672.25;5062959;28;20410;-78
2022/07/23 07:13:39;;;;;;;10.70;8.20;;;;;;;19.11;100.00;95672.38;5068594;28;20545;-78
2022/07/23 07:16:04;;;;;;;12.15;8.38;;;;;;;19.18;100.00;95678.00;5070969;28;20040;-78
2022/07/23 07:18:30;;;;;;;10.85;7.88;;;;;;;19.25;100.00;95672.19;5068620;28;20044;-79
2022/07/23 07:20:57;;;;;;;11.60;8.38;;;;;;;19.37;100.00;95680.28;5065063;28;20447;-78
2022/07/23 07:23:23;;;;;;;13.40;8.38;;;;;;;19.34;100.00;95680.91;5061780;28;20044;-77
2022/07/23 07:25:48;;;;;;;14.05;8.20;;;;;;;19.50;100.00;95680.38;5068497;28;20039;-81
2022/07/23 07:28:14;;;;;;;12.75;8.38;;;;;;;19.60;100.00;95681.91;5066647;28;20044;-77
2022/07/23 07:30:39;;;;;;;10.70;8.35;;;;;;;19.55;100.00;95675.63;5067171;28;20044;-78
2022/07/23 07:33:05;;;;;;;11.70;8.18;;;;;;;19.71;100.00;95683.06;5066174;28;20033;-77
2022/07/23 07:35:32;;;;;;;12.65;8.13;;;;;;;19.63;100.00;95697.25;5065583;28;20112;-78
2022/07/23 07:37:59;;;;;;;12.82;8.23;;;;;;;19.62;100.00;95706.38;5070503;28;20744;-77
2022/07/23 07:40:24;;;;;;;10.45;8.20;;;;;;;19.59;100.00;95707.03;5064904;28;20033;-80
2022/07/23 07:42:52;;;;;;;12.15;8.52;;;;;;;19.54;100.00;95711.44;5061515;28;20414;-79
2022/07/23 07:45:20;;;;;;;11.32;7.60;;;;;;;19.46;100.00;95701.56;5069206;28;20052;-79
2022/07/23 07:47:46;;;;;;;12.25;8.43;;;;;;;19.41;100.00;95704.44;5067526;28;20094;-78
2022/07/23 07:50:12;;;;;;;12.25;8.40;;;;;;;19.42;100.00;95708.66;5061101;28;20048;-79
2022/07/23 07:52:37;;;;;;;11.50;8.70;;;;;;;19.44;100.00;95711.81;5058697;28;20037;-80
2022/07/23 07:55:04;;;;;;;13.38;8.68;;;;;;;19.43;100.00;95720.91;5065955;28;20080;-79
2022/07/23 07:57:30;;;;;;;11.52;8.32;;;;;;;19.43;100.00;95715.56;5060296;28;20037;-78
2022/07/23 07:59:55;;;;;;;10.82;8.50;;;;;;;19.48;100.00;95712.72;5064665;28;20097;-77
2022/07/23 08:02:20;;;;;;;11.05;8.20;;;;;;;19.36;100.00;95715.28;5068609;28;20091;-78
2022/07/23 08:04:46;;;;;;;11.02;8.48;;;;;;;19.43;100.00;95709.47;5060820;28;20049;-77
2022/07/23 08:07:11;;;;;;;11.70;8.90;;;;;;;19.44;100.00;95711.81;5066993;28;20045;-77
2022/07/23 08:09:37;;;;;;;12.23;8.70;;;;;;;19.46;100.00;95709.59;5068226;28;20036;-80
2022/07/23 08:12:03;;;;;;;14.13;8.40;;;;;;;19.51;100.00;95712.06;5062493;28;20499;-78
2022/07/23 08:14:28;;;;;;;13.13;8.85;;;;;;;19.66;100.00;95707.28;5069393;28;20047;-77
2022/07/23 08:16:53;;;;;;;12.88;8.68;;;;;;;19.72;100.00;95700.66;5067421;28;20071;-77
2022/07/23 08:19:19;;;;;;;13.25;8.70;;;;;;;19.93;100.00;95710.63;5063363;28;20065;-78
2022/07/23 08:21:44;;;;;;;12.15;8.20;;;;;;;19.98;100.00;95713.88;5062859;28;20041;-80
2022/07/23 08:24:10;;;;;;;12.18;8.43;;;;;;;20.16;100.00;95722.56;5062924;28;20446;-78
2022/07/23 08:26:35;;;;;;;13.23;8.38;;;;;;;20.20;100.00;95715.44;5068748;28;20037;-78
2022/07/23 08:29:01;;;;;;;13.27;7.70;;;;;;;20.24;100.00;95737.75;5065725;28;20055;-77
2022/07/23 08:31:26;;;;;;;11.48;8.18;;;;;;;20.32;100.00;95733.44;5062542;28;20037;-77
2022/07/23 08:33:52;;;;;;;10.73;8.27;;;;;;;20.25;100.00;95727.84;5068994;28;20041;-77
2022/07/23 08:36:17;;;;;;;13.68;8.57;;;;;;;20.29;100.00;95731.41;5068291;28;20494;-78
2022/07/23 08:38:43;;;;;;;12.45;8.23;;;;;;;20.37;100.00;95724.44;5064444;28;20040;-77
2022/07/23 08:41:09;;;;;;;13.10;8.00;;;;;;;20.40;100.00;95726.44;5063953;28;20068;-78
2022/07/23 08:43:35;;;;;;;11.95;8.32;;;;;;;20.48;100.00;95720.25;5078881;28;20049;-78
2022/07/23 08:46:02;;;;;;;11.48;7.82;;;;;;;20.53;100.00;95722.75;5070877;28;20040;-76
2022/07/23 08:48:33;;;;;;;11.55;7.78;;;;;;;20.61;100.00;95726.44;5069761;28;20078;-77
2022/07/23 08:51:01;;;;;;;10.50;7.75;;;;;;;20.63;100.00;95721.56;5064059;28;21599;-78
2022/07/23 08:53:28;;;;;;;12.70;7.82;;;;;;;20.71;100.00;95722.59;5069955;28;20090;-78
2022/07/23 08:55:57;;;;;;;12.15;8.00;;;;;;;20.54;100.00;95735.00;5063062;28;20048;-80
2022/07/23 08:58:23;;;;;;;10.32;7.85;;;;;;;20.64;100.00;95733.03;5067032;28;20834;-79
2022/07/23 09:00:50;;;;;;;11.50;8.60;;;;;;;20.64;100.00;95738.38;5069100;28;20047;-77
2022/07/23 09:03:21;;;;;;;10.52;7.43;;;;;;;20.59;100.00;95737.47;5069380;28;20037;-78
2022/07/23 09:05:48;;;;;;;10.85;7.95;;;;;;;20.56;100.00;95743.47;5068875;28;20068;-76
2022/07/23 09:08:21;;;;;;;12.15;8.50;;;;;;;20.58;100.00;95746.56;5065934;28;20052;-76
2022/07/23 09:11:01;;;;;;;10.95;7.57;;;;;;;20.59;100.00;95753.50;5066483;28;20029;-76
2022/07/23 09:13:48;;;;;;;9.48;7.03;;;;;;;20.69;100.00;95746.22;5070429;28;20041;-76
2022/07/23 09:16:27;;;;;;;10.07;7.35;;;;;;;20.68;100.00;95750.00;5071003;28;20044;-76
2022/07/23 09:18:58;;;;;;;10.18;7.00;;;;;;;20.88;100.00;95759.88;5069318;28;20037;-76
2022/07/23 09:21:28;;;;;;;9.13;6.85;;;;;;;20.94;100.00;95758.56;5060681;28;20041;-76
2022/07/23 09:24:03;;;;;;;9.23;7.00;;;;;;;21.06;100.00;95767.72;5070826;28;20516;-78
2022/07/23 09:26:32;;;;;;;11.50;6.78;;;;;;;21.10;100.00;95769.44;5069962;28;20086;-77
2022/07/23 09:29:03;;;;;;;10.15;6.93;;;;;;;21.28;100.00;95767.34;5065974;28;20048;-80
2022/07/23 09:31:51;;;;;;;9.32;7.13;;;;;;;21.47;100.00;95763.34;5075194;28;20037;-78
2022/07/23 09:34:22;;;;;;;10.93;6.47;;;;;;;21.68;97.60;95762.50;5086003;28;20039;-77
2022/07/23 09:36:49;;;;;;;8.63;6.60;;;;;;;22.02;92.09;95771.19;5067871;28;20629;-77
2022/07/23 09:39:21;;;;;;;9.60;6.80;;;;;;;22.37;89.83;95768.03;5072140;28;20036;-77
2022/07/23 09:41:48;;;;;;;9.80;7.22;;;;;;;22.57;87.72;95774.34;5074215;28;20032;-77
2022/07/23 09:44:20;;;;;;;8.43;6.60;;;;;;;22.78;86.02;95768.81;5077190;28;20502;-77
2022/07/23 09:46:50;;;;;;;11.35;6.95;;;;;;;22.76;86.97;95761.09;5073546;28;20413;-77
2022/07/23 09:49:18;;;;;;;13.05;7.40;;;;;;;22.89;87.05;95764.50;5070296;28;20094;-78
2022/07/23 09:51:56;;;;;;;9.50;7.10;;;;;;;23.20;83.76;95757.66;5069550;28;20040;-79
2022/07/23 09:54:30;;;;;;;10.25;6.03;;;;;;;23.45;82.11;95757.53;5065227;28;20046;-80
2022/07/23 09:56:57;;;;;;;9.30;7.03;;;;;;;23.59;82.19;95763.25;5065390;28;20036;-78
2022/07/23 09:59:34;;;;;;;11.05;6.57;;;;;;;23.94;76.47;95761.75;5076535;28;20109;-81
2022/07/23 10:02:00;;;;;;;9.07;6.57;;;;;;;24.24;78.30;95762.03;5068807;28;20206;-81
2022/07/23 10:04:29;;;;;;;9.70;5.85;;;;;;;24.46;72.79;95754.41;5072151;28;20494;-83
2022/07/23 10:06:56;;;;;;;8.63;6.03;;;;;;;24.66;73.40;95756.00;5062253;28;20044;-81
2022/07/23 10:09:31;;;;;;;7.90;6.13;;;;;;;24.59;72.46;95742.38;5069091;28;20044;-81
2022/07/23 10:12:30;;;;;;;7.93;6.20;;;;;;;24.96;72.11;95750.03;5064536;28;20037;-80
2022/07/23 10:14:50;;;;;;;9.32;6.03;;;;;;;25.07;72.80;95740.22;5071140;28;20076;-80
2022/07/23 10:17:16;;;;;;;8.70;5.88;;;;;;;25.06;69.05;95733.28;5084354;28;20047;-79
2022/07/23 10:19:43;;;;;;;8.02;5.53;;;;;;;25.26;69.26;95730.53;5061902;28;20094;-79
2022/07/23 10:22:12;;;;;;;8.95;5.28;;;;;;;25.20;64.83;95721.22;5068543;28;20051;-80
2022/07/23 10:25:09;;;;;;;9.38;6.22;;;;;;;25.08;64.14;95724.84;5071879;28;20048;-80
2022/07/23 10:28:02;;;;;;;9.82;5.80;;;;;;;25.29;64.65;95719.06;5052459;28;20040;-79
2022/07/23 10:30:44;;;;;;;8.15;5.90;;;;;;;25.29;62.68;95713.66;5083536;28;20044;-78
2022/07/23 10:33:16;;;;;;;8.73;5.78;;;;;;;25.68;64.64;95708.13;5063105;28;20543;-82
2022/07/23 10:35:49;;;;;;;6.97;5.40;;;;;;;25.84;61.57;95715.28;5067547;28;20052;-80
2022/07/23 10:38:29;;;;;;;10.88;5.85;;;;;;;25.77;61.70;95719.44;5069365;28;20048;-79
2022/07/23 10:41:00;;;;;;;8.20;5.75;;;;;;;25.48;61.19;95712.06;5078361;28;20037;-80
2022/07/23 10:43:27;;;;;;;10.02;5.93;;;;;;;25.42;62.01;95712.38;5069115;28;20047;-81
2022/07/23 10:45:53;;;;;;;8.65;5.20;;;;;;;25.47;61.34;95713.19;5070154;28;20044;-80
2022/07/23 10:48:25;;;;;;;7.05;5.03;;;;;;;25.37;63.41;95715.38;5067198;28;20044;-81
2022/07/23 10:51:20;;;;;;;7.10;4.63;;;;;;;25.33;60.77;95719.91;5058605;28;20079;-81
2022/07/23 10:53:52;;;;;;;10.30;5.70;;;;;;;25.34;60.34;95716.09;5050516;28;20053;-79
2022/07/23 10:56:56;;;;;;;9.80;4.75;;;;;;;25.19;59.38;95720.41;5068868;28;20044;-80
2022/07/23 10:59:22;;;;;;;7.82;5.32;;;;;;;25.39;60.04;95713.09;5041593;28;20055;-79
2022/07/23 11:01:47;;;;;;;7.78;5.00;;;;;;;25.49;58.00;95722.47;5065380;28;20036;-80
2022/07/23 11:04:13;;;;;;;10.35;4.82;;;;;;;25.31;59.24;95732.94;5064513;28;20108;-80
2022/07/23 11:06:48;;;;;;;8.48;5.47;;;;;;;25.21;60.19;95718.16;5081876;28;20040;-80
2022/07/23 11:09:43;;;;;;;9.35;5.55;;;;;;;24.96;60.63;95728.47;5058723;28;20082;-80
2022/07/23 11:12:20;;;;;;;9.45;5.45;;;;;;;24.92;60.15;95721.50;5059499;28;20056;-79
2022/07/23 11:15:07;;;;;;;10.43;5.60;;;;;;;24.89;60.97;95712.22;5071427;28;20041;-79
2022/07/23 11:17:36;;;;;;;10.43;5.82;;;;;;;24.76;62.05;95702.75;5067881;28;20123;-79
2022/07/23 11:20:17;;;;;;;8.32;5.45;;;;;;;24.93;62.65;95706.91;5065290;28;20041;-79
2022/07/23 11:22:42;;;;;;;8.23;5.50;;;;;;;24.83;60.98;95710.94;5059785;28;20037;-80
2022/07/23 11:25:09;;;;;;;8.93;6.05;;;;;;;24.76;62.69;95710.81;5061395;28;20052;-79